createdAt,value
2022-10-19T00:00:19.056Z,88.64
2022-10-19T00:03:23.283Z,88.92
2022-10-19T00:06:29.880Z,88.51
2022-10-19T00:09:33.309Z,88.34
2022-10-19T00:12:36.446Z,88.72
2022-10-19T00:15:42.351Z,89.04
2022-10-19T00:18:46.657Z,88.98
2022-10-19T00:24:55.915Z,89.11
2022-10-19T00:28:01.451Z,89.32
2022-10-19T00:31:06.787Z,89.74
2022-10-19T00:34:10.429Z,89.74
2022-10-19T00:37:12.995Z,89.67
2022-10-19T00:40:16.959Z,89.54
2022-10-19T00:43:31.471Z,89.42
2022-10-19T00:46:37.729Z,89.44
2022-10-19T00:49:44.821Z,89.26
2022-10-19T00:52:47.930Z,89.23
2022-10-19T00:55:50.737Z,89.54
2022-10-19T00:58:53.889Z,89.81
2022-10-19T01:01:56.716Z,89.46
2022-10-19T01:05:01.482Z,89.04
2022-10-19T01:08:09.747Z,89.11
2022-10-19T01:11:18.937Z,89.41
2022-10-19T01:14:28.324Z,90.27
2022-10-19T01:18:21.816Z,89.91
2022-10-19T01:21:47.088Z,90.07
2022-10-19T01:25:24.027Z,90.50
2022-10-19T01:28:44.616Z,90.41
2022-10-19T01:32:05.768Z,90.62
2022-10-19T01:35:34.053Z,90.20
2022-10-19T01:39:09.307Z,89.77
2022-10-19T01:42:18.987Z,89.75
2022-10-19T01:45:30.487Z,89.26
2022-10-19T01:48:39.012Z,89.20
2022-10-19T01:51:48.748Z,88.98
2022-10-19T01:54:57.109Z,89.12
2022-10-19T01:58:08.303Z,89.44
2022-10-19T02:01:15.749Z,89.50
2022-10-19T02:04:21.673Z,89.90
2022-10-19T02:07:25.350Z,90.41
2022-10-19T02:10:31.208Z,90.34
2022-10-19T02:13:35.814Z,90.38
2022-10-19T02:16:47.907Z,90.17
2022-10-19T02:19:51.163Z,89.60
2022-10-19T02:22:53.909Z,89.25
2022-10-19T02:25:57.901Z,89.16
2022-10-19T02:29:03.527Z,88.79
2022-10-19T02:32:09.088Z,88.34
2022-10-19T02:35:14.567Z,88.61
2022-10-19T02:38:22.141Z,88.72
2022-10-19T02:41:32.264Z,88.43
2022-10-19T02:44:48.128Z,88.47
2022-10-19T02:48:21.935Z,88.28
2022-10-19T02:51:33.027Z,88.17
2022-10-19T02:54:37.478Z,87.66
2022-10-19T02:57:40.554Z,87.39
2022-10-19T03:00:43.644Z,87.07
2022-10-19T03:03:46.811Z,87.16
2022-10-19T03:06:49.527Z,87.15
2022-10-19T03:09:53.317Z,86.99
2022-10-19T03:12:58.557Z,86.45
2022-10-19T03:16:11.912Z,86.20
2022-10-19T03:19:14.695Z,86.41
2022-10-19T03:22:18.168Z,86.54
2022-10-19T03:25:21.054Z,86.77
2022-10-19T03:28:23.957Z,86.63
2022-10-19T03:31:27.288Z,86.39
2022-10-19T03:34:30.465Z,85.99
2022-10-19T03:37:33.303Z,85.38
2022-10-19T03:40:36.884Z,84.59
2022-10-19T03:43:41.388Z,83.82
2022-10-19T03:46:47.308Z,83.26
2022-10-19T03:49:54.194Z,82.83
2022-10-19T03:52:57.145Z,82.86
2022-10-19T03:56:14.804Z,82.96
2022-10-19T03:59:20.677Z,83.42
2022-10-19T04:02:23.299Z,83.44
2022-10-19T04:05:26.293Z,83.92
2022-10-19T04:08:28.925Z,84.36
2022-10-19T04:11:34.916Z,84.23
2022-10-19T04:14:56.200Z,83.48
2022-10-19T04:18:01.226Z,82.98
2022-10-19T04:21:06.349Z,83.00
2022-10-19T04:24:15.143Z,82.42
2022-10-19T04:27:35.297Z,82.41
2022-10-19T04:30:38.848Z,82.46
2022-10-19T04:33:42.581Z,81.61
2022-10-19T04:36:46.329Z,80.91
2022-10-19T04:39:49.244Z,80.31
2022-10-19T04:42:52.125Z,79.92
2022-10-19T04:45:55.807Z,79.33
2022-10-19T04:49:01.412Z,79.98
2022-10-19T04:52:05.432Z,79.98
2022-10-19T04:55:09.224Z,80.06
2022-10-19T04:58:18.339Z,80.00
2022-10-19T05:01:24.050Z,79.73
2022-10-19T05:04:27.087Z,79.17
2022-10-19T05:07:32.157Z,79.33
2022-10-19T05:10:37.112Z,79.21
2022-10-19T05:13:42.920Z,79.34
2022-10-19T05:16:46.335Z,79.43
2022-10-19T05:19:49.309Z,79.18
2022-10-19T05:22:54.138Z,79.26
2022-10-19T05:26:12.920Z,79.42
2022-10-19T05:29:16.732Z,79.60
2022-10-19T05:32:22.879Z,80.16
2022-10-19T05:35:26.777Z,80.47
2022-10-19T05:38:30.119Z,80.54
2022-10-19T05:41:34.227Z,80.20
2022-10-19T05:47:41.848Z,79.83
2022-10-19T05:50:55.805Z,79.66
2022-10-19T05:53:58.922Z,79.45
2022-10-19T05:57:02.689Z,78.00
2022-10-19T06:00:07.083Z,75.92
2022-10-19T06:03:15.925Z,73.42
2022-10-19T06:06:25.971Z,71.34
2022-10-19T06:09:35.985Z,69.48
2022-10-19T06:12:39.460Z,67.81
2022-10-19T06:15:43.683Z,66.27
2022-10-19T06:18:47.111Z,64.62
2022-10-19T06:21:50.881Z,63.72
2022-10-19T06:24:54.969Z,62.38
2022-10-19T06:27:58.904Z,61.86
2022-10-19T06:31:09.661Z,60.23
2022-10-19T06:34:13.439Z,60.45
2022-10-19T06:37:17.463Z,58.15
2022-10-19T06:40:20.882Z,57.66
2022-10-19T06:43:24.476Z,56.69
2022-10-19T06:46:34.217Z,55.84
2022-10-19T06:49:42.383Z,54.94
2022-10-19T06:52:48.474Z,54.86
2022-10-19T06:55:53.579Z,53.58
2022-10-19T06:58:56.437Z,53.94
2022-10-19T07:02:00.690Z,53.76
2022-10-19T07:05:07.962Z,51.63
2022-10-19T07:08:12.006Z,53.23
2022-10-19T07:11:18.008Z,51.00
2022-10-19T07:14:25.009Z,51.88
2022-10-19T07:17:33.226Z,51.05
2022-10-19T07:20:38.133Z,49.84
2022-10-19T07:23:44.263Z,50.62
2022-10-19T07:26:50.316Z,50.05
2022-10-19T07:29:53.072Z,49.32
2022-10-19T07:32:56.100Z,49.53
2022-10-19T07:36:00.884Z,49.53
2022-10-19T07:39:06.408Z,47.93
2022-10-19T07:42:09.634Z,48.98
2022-10-19T07:45:16.744Z,48.68
2022-10-19T07:48:20.083Z,48.06
2022-10-19T07:51:23.316Z,48.11
2022-10-19T07:54:27.530Z,47.18
2022-10-19T07:57:30.590Z,48.49
2022-10-19T08:00:33.556Z,47.22
2022-10-19T08:07:12.012Z,46.75
2022-10-19T08:10:16.556Z,47.05
2022-10-19T08:13:20.702Z,45.96
2022-10-19T08:16:29.127Z,46.42
2022-10-19T08:19:33.185Z,46.45
2022-10-19T08:22:37.479Z,46.60
2022-10-19T08:25:42.952Z,49.29
2022-10-19T08:28:47.608Z,47.55
2022-10-19T08:31:50.489Z,46.18
2022-10-19T08:34:55.279Z,46.24
2022-10-19T08:37:58.733Z,46.21
2022-10-19T08:41:19.357Z,45.31
2022-10-19T08:44:46.510Z,48.61
2022-10-19T08:47:59.987Z,47.70
2022-10-19T08:51:05.672Z,47.73
2022-10-19T08:54:23.073Z,47.32
2022-10-19T08:57:36.463Z,45.85
2022-10-19T09:01:10.884Z,47.57
2022-10-19T09:04:20.156Z,47.84
2022-10-19T09:07:32.765Z,47.84
2022-10-19T09:10:43.195Z,48.70
2022-10-19T09:14:04.703Z,47.70
2022-10-19T09:17:15.933Z,47.56
2022-10-19T09:20:23.212Z,47.05
2022-10-19T09:23:40.013Z,46.04
2022-10-19T09:26:52.208Z,47.91
2022-10-19T09:29:59.225Z,48.04
2022-10-19T09:33:03.047Z,48.36
2022-10-19T09:36:10.402Z,48.36
2022-10-19T09:39:17.635Z,49.37
2022-10-19T09:42:26.375Z,47.73
2022-10-19T09:45:35.758Z,45.35
2022-10-19T09:48:46.003Z,47.32
2022-10-19T09:51:52.407Z,46.79
2022-10-19T09:55:07.199Z,45.56
2022-10-19T09:58:14.004Z,46.72
2022-10-19T10:01:41.486Z,47.57
2022-10-19T10:05:03.754Z,46.39
2022-10-19T10:08:19.799Z,46.40
2022-10-19T10:11:31.992Z,46.50
2022-10-19T10:14:37.031Z,48.51
2022-10-19T10:17:40.124Z,48.71
2022-10-19T10:21:25.184Z,49.58
2022-10-19T10:24:30.979Z,49.26
2022-10-19T10:27:37.095Z,49.16
2022-10-19T10:30:53.906Z,48.37
2022-10-19T10:34:11.144Z,47.62
2022-10-19T10:37:41.845Z,50.76
2022-10-19T10:41:01.915Z,49.28
2022-10-19T10:44:19.191Z,50.42
2022-10-19T10:47:32.460Z,50.59
2022-10-19T10:50:37.317Z,51.62
2022-10-19T10:53:43.594Z,50.96
2022-10-19T10:57:06.349Z,49.98
2022-10-19T11:00:18.372Z,49.55
2022-10-19T11:03:32.856Z,48.92
2022-10-19T11:06:44.830Z,48.59
2022-10-19T11:09:54.286Z,48.99
2022-10-19T11:13:24.103Z,47.04
2022-10-19T11:16:29.965Z,47.19
2022-10-19T11:19:37.995Z,48.61
2022-10-19T11:23:10.015Z,48.38
2022-10-19T11:26:39.687Z,46.96
2022-10-19T11:29:52.652Z,46.71
2022-10-19T11:32:59.137Z,46.48
2022-10-19T11:36:07.991Z,45.28
2022-10-19T11:39:44.994Z,45.21
2022-10-19T11:43:04.894Z,45.68
2022-10-19T11:46:35.172Z,44.12
2022-10-19T11:49:59.305Z,44.58
2022-10-19T11:53:20.661Z,44.37
2022-10-19T11:57:03.963Z,44.49
2022-10-19T12:00:38.238Z,44.88
2022-10-19T12:04:19.991Z,46.64
2022-10-19T12:07:45.022Z,46.45
2022-10-19T12:11:19.052Z,47.36
2022-10-19T12:14:31.276Z,47.94
2022-10-19T12:17:44.254Z,47.46
2022-10-19T12:20:53.532Z,48.29
2022-10-19T12:24:00.777Z,48.02
2022-10-19T12:27:18.143Z,47.65
2022-10-19T12:30:26.489Z,47.33
2022-10-19T12:33:47.983Z,46.65
2022-10-19T12:37:07.540Z,46.59
2022-10-19T12:40:23.972Z,47.16
2022-10-19T12:43:43.607Z,47.40
2022-10-19T12:46:57.561Z,47.21
2022-10-19T12:50:09.134Z,48.40
2022-10-19T12:56:48.771Z,49.11
2022-10-19T13:00:24.096Z,49.77
2022-10-19T13:03:43.079Z,48.84
2022-10-19T13:07:00.995Z,47.87
2022-10-19T13:10:20.418Z,46.96
2022-10-19T13:13:57.556Z,47.30
2022-10-19T13:17:02.758Z,46.92
2022-10-19T13:20:20.239Z,48.13
2022-10-19T13:23:32.215Z,46.93
2022-10-19T13:26:36.278Z,46.89
2022-10-19T13:29:42.925Z,47.11
2022-10-19T13:32:46.287Z,47.87
2022-10-19T13:36:00.343Z,45.85
2022-10-19T13:39:08.758Z,45.25
2022-10-19T13:42:31.039Z,45.70
2022-10-19T13:45:39.247Z,46.00
2022-10-19T13:49:04.200Z,45.53
2022-10-19T13:52:35.362Z,45.21
2022-10-19T13:56:22.880Z,45.37
2022-10-19T13:59:54.980Z,46.31
2022-10-19T14:03:29.230Z,46.97
2022-10-19T14:06:44.179Z,47.28
2022-10-19T14:10:14.414Z,47.56
2022-10-19T14:13:26.237Z,48.05
2022-10-19T14:16:37.926Z,48.44
2022-10-19T14:20:00.302Z,48.70
2022-10-19T14:23:27.265Z,48.79
2022-10-19T14:26:35.068Z,49.03
2022-10-19T14:29:49.791Z,49.76
2022-10-19T14:32:58.039Z,49.87
2022-10-19T14:36:18.006Z,49.83
2022-10-19T14:39:35.167Z,49.91
2022-10-19T14:42:43.260Z,49.94
2022-10-19T14:46:06.663Z,48.90
2022-10-19T14:49:16.321Z,49.19
2022-10-19T14:52:35.089Z,48.88
2022-10-19T14:55:43.017Z,49.27
2022-10-19T14:58:58.845Z,49.19
2022-10-19T15:02:13.000Z,49.64
2022-10-19T15:05:23.941Z,49.72
2022-10-19T15:08:45.120Z,50.34
2022-10-19T15:11:53.152Z,50.30
2022-10-19T15:15:01.430Z,51.07
2022-10-19T15:18:43.374Z,51.50
2022-10-19T15:21:47.154Z,51.89
2022-10-19T15:24:58.223Z,52.55
2022-10-19T15:28:22.324Z,52.42
2022-10-19T15:31:30.353Z,52.49
2022-10-19T15:34:43.997Z,53.18
2022-10-19T15:37:56.921Z,53.14
2022-10-19T15:41:07.691Z,53.13
2022-10-19T15:44:33.143Z,53.62
2022-10-19T15:47:37.975Z,54.36
2022-10-19T15:50:48.059Z,54.48
2022-10-19T15:54:15.982Z,54.48
2022-10-19T15:57:31.025Z,55.00
2022-10-19T16:00:43.272Z,55.09
2022-10-19T16:03:47.247Z,55.39
2022-10-19T16:06:52.034Z,55.11
2022-10-19T16:10:06.976Z,54.83
2022-10-19T16:13:11.173Z,54.92
2022-10-19T16:16:22.812Z,54.68
2022-10-19T16:19:35.136Z,54.64
2022-10-19T16:22:40.007Z,54.57
2022-10-19T16:26:01.482Z,54.95
2022-10-19T16:29:26.728Z,55.19
2022-10-19T16:57:46.010Z,55.04
2022-10-19T17:00:58.008Z,55.58
2022-10-19T17:04:03.655Z,55.98
2022-10-19T17:07:09.039Z,56.08
2022-10-19T17:10:23.220Z,56.15
2022-10-19T17:13:35.991Z,56.18
2022-10-19T17:16:41.942Z,56.09
2022-10-19T17:20:00.269Z,56.30
2022-10-19T17:23:56.170Z,56.41
2022-10-19T17:27:09.550Z,56.87
2022-10-19T17:30:19.025Z,57.06
2022-10-19T17:33:29.485Z,57.50
2022-10-19T17:39:52.138Z,57.85
2022-10-19T17:43:13.016Z,58.58
2022-10-19T17:46:32.271Z,59.10
2022-10-19T17:49:59.962Z,59.28
2022-10-19T17:53:06.603Z,60.26
2022-10-19T17:56:20.248Z,59.99
2022-10-19T17:59:46.633Z,60.77
2022-10-19T18:06:47.478Z,60.55
2022-10-19T18:10:03.015Z,61.19
2022-10-19T18:13:20.075Z,60.98
2022-10-19T18:17:04.826Z,61.63
2022-10-19T18:20:27.157Z,60.87
2022-10-19T18:23:39.169Z,60.80
2022-10-19T18:26:43.202Z,60.76
2022-10-19T18:29:49.118Z,61.05
2022-10-19T18:32:54.934Z,61.82
2022-10-19T18:36:01.000Z,62.15
2022-10-19T18:39:07.750Z,61.79
2022-10-19T18:42:13.310Z,62.18
2022-10-19T18:45:19.979Z,63.17
2022-10-19T18:48:29.171Z,63.16
2022-10-19T18:51:54.289Z,63.50
2022-10-19T18:55:08.137Z,64.21
2022-10-19T18:58:21.207Z,64.03
2022-10-19T19:01:35.947Z,64.71
2022-10-19T19:04:55.064Z,65.51
2022-10-19T19:08:09.010Z,66.33
2022-10-19T19:11:22.446Z,66.51
2022-10-19T19:14:26.509Z,67.09
2022-10-19T19:17:31.048Z,67.41
2022-10-19T19:20:48.030Z,67.46
2022-10-19T19:24:00.034Z,67.76
2022-10-19T19:27:05.183Z,67.34
2022-10-19T19:30:11.999Z,66.81
2022-10-19T19:33:16.108Z,66.46
2022-10-19T19:36:32.216Z,65.83
2022-10-19T19:39:46.152Z,65.69
2022-10-19T19:42:50.111Z,65.26
2022-10-19T19:46:07.908Z,65.14
2022-10-19T19:49:15.979Z,65.43
2022-10-19T19:52:22.998Z,65.60
2022-10-19T19:55:28.724Z,64.91
2022-10-19T19:58:38.028Z,65.79
2022-10-19T20:01:43.022Z,66.82
2022-10-19T20:04:46.953Z,67.59
2022-10-19T20:07:51.355Z,68.52
2022-10-19T20:10:55.269Z,69.30
2022-10-19T20:14:00.252Z,69.32
2022-10-19T20:17:04.718Z,69.88
2022-10-19T20:20:14.439Z,70.13
2022-10-19T20:23:17.816Z,70.92
2022-10-19T20:26:49.118Z,71.06
2022-10-19T20:30:00.975Z,71.00
2022-10-19T20:33:06.951Z,71.18
2022-10-19T20:45:39.245Z,73.62
2022-10-19T20:48:59.988Z,73.21
2022-10-19T20:52:13.443Z,72.49
2022-10-19T20:55:16.907Z,72.72
2022-10-19T20:58:21.987Z,72.46
2022-10-19T21:01:27.298Z,72.05
2022-10-19T21:04:31.715Z,71.97
2022-10-19T21:07:34.491Z,72.01
2022-10-19T21:10:37.858Z,72.53
2022-10-19T21:13:41.586Z,72.38
2022-10-19T21:16:45.041Z,71.99
2022-10-19T21:19:48.918Z,71.85
2022-10-19T21:22:52.282Z,71.70
2022-10-19T21:26:03.200Z,71.93
2022-10-19T21:29:09.766Z,71.89
2022-10-19T21:32:12.867Z,71.99
2022-10-19T21:35:16.252Z,72.12
2022-10-19T21:38:19.292Z,71.70
2022-10-19T21:41:26.199Z,71.72
2022-10-19T21:44:30.084Z,71.62
2022-10-19T21:47:33.169Z,71.47
2022-10-19T21:50:42.305Z,71.68
2022-10-19T21:53:47.151Z,71.53
2022-10-19T21:56:50.786Z,71.72
2022-10-19T21:59:53.765Z,71.59
2022-10-19T22:02:56.752Z,71.56
2022-10-19T22:06:00.788Z,71.69
2022-10-19T22:09:06.434Z,71.93
2022-10-19T22:12:10.094Z,72.21
2022-10-19T22:15:15.036Z,72.12
2022-10-19T22:18:19.323Z,71.59
2022-10-19T22:21:25.811Z,71.91
2022-10-19T22:24:29.281Z,72.14
2022-10-19T22:27:32.434Z,72.80
2022-10-19T22:33:45.944Z,73.22
2022-10-19T22:36:50.764Z,73.73
2022-10-19T22:39:54.006Z,74.23
2022-10-19T22:42:57.276Z,74.17
2022-10-19T22:46:00.249Z,74.43
2022-10-19T22:49:04.531Z,74.50
2022-10-19T22:52:08.101Z,75.31
2022-10-19T22:55:12.439Z,75.40
2022-10-19T22:58:15.961Z,75.60
2022-10-19T23:01:19.600Z,75.92
2022-10-19T23:04:22.976Z,76.09
2022-10-19T23:07:26.367Z,76.49
2022-10-19T23:10:29.611Z,77.18
2022-10-19T23:13:32.757Z,77.56
2022-10-19T23:16:38.947Z,77.29
2022-10-19T23:19:42.105Z,77.47
2022-10-19T23:22:45.131Z,77.78
2022-10-19T23:26:08.417Z,78.55
2022-10-19T23:29:12.386Z,78.88
2022-10-19T23:32:15.617Z,79.33
2022-10-19T23:35:18.241Z,79.55
2022-10-19T23:38:21.068Z,79.36
2022-10-19T23:41:24.825Z,80.17
2022-10-19T23:44:27.898Z,80.19
2022-10-19T23:47:30.661Z,79.51
2022-10-19T23:50:33.412Z,80.47
2022-10-19T23:53:40.897Z,80.91
2022-10-19T23:56:45.774Z,80.53
2022-10-19T23:59:48.302Z,80.52
